PANC/ANC METAR and TAF weather

Enter ICAO airport designator
Station Type Date Time Source
PANC METAR 2021/09/25 11:53 UTC NOAA

PANC 251153Z 00000KT 10SM FEW010 BKN085 BKN110 02/00 A2967 RMK AO2 CIG 010 N SLP049 60004 70024 T00220000 10028 20017 52004


Station Type Date Time Source
PANC Decoded METAR 2021/09/25 11:53 UTC NOAA

TED STEVENS ANCHORAGE INTERNATIONAL , AK, United States (PANC) 61-10N 150-02W 48M
Sep 25, 2021 - 07:53 AM EDT / 2021.09.25 1153 UTC
Wind: Calm:0
Visibility: 10 mile(s):0
Sky conditions: mostly cloudy
Temperature: 36.0 F (2.2 C)
Dew Point: 32.0 F (0.0 C)
Relative Humidity: 85%
Pressure (altimeter): 29.67 in. Hg (1004 hPa)
Pressure tendency: 0.01 inches (0.4 hPa) higher than three hours ago
ob: PANC 251153Z 00000KT 10SM FEW010 BKN085 BKN110 02/00 A2967 RMK AO2 CIG 010 N SLP049 60004 70024 T00220000 10028 20017 52004
cycle: 12

Station Type Date Time Source
PANC TAF 2021/09/25 12:42 UTC NOAA

TAF
AMD PANC 251139Z 2512/2612 06005KT P6SM SCT007 BKN015 OVC070
TEMPO 2512/2516 -RA BKN007
FM251600 35005KT P6SM SCT030 BKN045
TEMPO 2516/2520 BKN030
FM252000 VRB05KT P6SM FEW050 BKN100
FM260600 02006KT P6SM SKC

Example: see airport list